Terminal Aerodrome Forecast
Issued by NWS

Home | Current Version | Previous Version | Graphics & Text | Print | Product List | Glossary On
Versions: 1 2 3 4 5 6 7 8 9 10 11 12 13 14 15 16 17 18 19 20 21 22 23 24 25 26 27 28
538
FTUS43 KGRB 180025 AAA
TAFCWA
TAF AMD
KCWA 180025Z 1800/1824 33004KT 5SM BR OVC020
     FM180100 31003KT P6SM SCT020 BKN050
     FM180800 26003KT 3SM BR OVC003
     FM181500 22008KT 5SM BR BKN008
     FM181800 22009KT P6SM SCT012=

USA.gov is the U.S. government's official web portal to all federal, state and local government web resources and services.